createdAt,value
2023-09-03T00:00:44.271Z,15.80
2023-09-03T00:03:11.340Z,15.60
2023-09-03T00:08:05.905Z,15.40
2023-09-03T00:10:36.421Z,16.70
2023-09-03T00:13:04.834Z,14.40
2023-09-03T00:20:26.801Z,14.50
2023-09-03T00:25:21.004Z,14.90
2023-09-03T00:27:47.914Z,15.60
2023-09-03T00:30:15.065Z,16.30
2023-09-03T00:32:42.019Z,16.60
2023-09-03T00:35:09.501Z,14.50
2023-09-03T00:40:04.593Z,16.50
2023-09-03T00:52:22.938Z,15.20
2023-09-03T00:59:46.617Z,15.50
2023-09-03T01:02:17.794Z,15.10
2023-09-03T01:07:13.148Z,15.10
2023-09-03T01:09:41.542Z,15.60
2023-09-03T01:12:16.317Z,15.40
2023-09-03T01:14:45.893Z,13.80
2023-09-03T01:20:01.901Z,14.90
2023-09-03T01:22:56.532Z,14.30
2023-09-03T01:25:49.972Z,15.40
2023-09-03T01:28:30.435Z,13.40
2023-09-03T01:31:08.256Z,13.50
2023-09-03T01:33:38.430Z,14.70
2023-09-03T01:36:07.573Z,14.40
2023-09-03T01:41:02.771Z,14.60
2023-09-03T01:46:07.396Z,13.60
2023-09-03T01:48:50.931Z,13.30
2023-09-03T01:51:34.890Z,14.60
2023-09-03T01:54:19.634Z,13.40
2023-09-03T01:57:06.761Z,13.90
2023-09-03T01:59:44.414Z,14.50
2023-09-03T02:02:13.108Z,14.50
2023-09-03T02:04:40.657Z,15.70
2023-09-03T02:12:02.940Z,14.40
2023-09-03T02:16:57.205Z,13.30
2023-09-03T02:26:48.164Z,13.80
2023-09-03T02:31:42.635Z,15.70
2023-09-03T02:34:10.822Z,14.20
2023-09-03T02:39:07.425Z,14.20
2023-09-03T02:44:03.012Z,14.30
2023-09-03T02:48:57.476Z,15.40
2023-09-03T02:53:52.789Z,15.40
2023-09-03T02:56:20.003Z,14.80
2023-09-03T02:58:50.515Z,14.10
2023-09-03T03:01:20.102Z,13.70
2023-09-03T03:03:48.140Z,14.60
2023-09-03T03:06:16.041Z,14.30
2023-09-03T03:11:17.825Z,12.80
2023-09-03T03:13:53.480Z,14.50
2023-09-03T03:16:23.567Z,14.40
2023-09-03T03:19:06.178Z,13.50
2023-09-03T03:21:36.640Z,14.20
2023-09-03T03:26:36.344Z,13.20
2023-09-03T03:31:36.872Z,15.00
2023-09-03T03:36:33.537Z,14.90
2023-09-03T03:43:56.113Z,15.40
2023-09-03T03:51:23.648Z,13.70
2023-09-03T03:56:19.049Z,12.90
2023-09-03T04:01:20.468Z,12.60
2023-09-03T04:03:53.369Z,12.80
2023-09-03T04:06:20.896Z,12.80
2023-09-03T04:08:48.696Z,13.90
2023-09-03T04:11:22.132Z,13.70
2023-09-03T04:16:18.991Z,13.70
2023-09-03T04:23:45.196Z,13.10
2023-09-03T04:28:46.559Z,13.10
2023-09-03T04:36:11.435Z,12.70
2023-09-03T04:41:06.909Z,12.60
2023-09-03T04:44:07.843Z,13.90
2023-09-03T04:46:38.309Z,12.50
2023-09-03T04:49:05.399Z,14.20
2023-09-03T04:53:59.761Z,12.70
2023-09-03T04:56:26.681Z,12.70
2023-09-03T05:23:42.366Z,13.00
2023-09-03T05:33:36.717Z,13.70
2023-09-03T05:38:31.452Z,13.60
2023-09-03T05:48:26.127Z,13.40
2023-09-03T05:51:00.668Z,14.20
2023-09-03T05:53:29.274Z,13.40
2023-09-03T05:56:08.028Z,14.40
2023-09-03T05:58:37.257Z,14.30
2023-09-03T06:01:05.758Z,14.30
2023-09-03T06:06:06.875Z,15.70
2023-09-03T06:08:36.941Z,15.80
2023-09-03T06:11:05.474Z,14.60
2023-09-03T06:13:34.295Z,14.70
2023-09-03T06:18:28.837Z,13.90
2023-09-03T06:20:55.764Z,15.50
2023-09-03T06:23:22.853Z,15.10
2023-09-03T06:25:51.579Z,13.80
2023-09-03T06:43:03.210Z,16.80
2023-09-03T06:45:30.221Z,15.00
2023-09-03T06:47:57.258Z,14.60
2023-09-03T06:50:24.177Z,14.50
2023-09-03T06:57:46.802Z,17.10
2023-09-03T07:00:14.434Z,17.00
2023-09-03T07:02:41.538Z,17.20
2023-09-03T07:05:09.086Z,14.90
2023-09-03T07:17:26.236Z,17.80
2023-09-03T07:19:56.551Z,16.90
2023-09-03T07:24:54.430Z,17.00
2023-09-03T07:27:21.593Z,17.20
2023-09-03T07:29:53.712Z,17.20
2023-09-03T07:32:23.809Z,16.50
2023-09-03T07:39:47.312Z,17.60
2023-09-03T07:44:41.466Z,16.50
2023-09-03T07:52:02.955Z,19.60
2023-09-03T07:54:29.831Z,19.40
2023-09-03T07:56:56.749Z,19.50
2023-09-03T07:59:23.668Z,19.80
2023-09-03T08:01:50.547Z,19.70
2023-09-03T08:04:17.561Z,18.60
2023-09-03T08:06:44.796Z,18.30
2023-09-03T08:09:12.169Z,18.30
2023-09-03T08:16:34.561Z,20.00
2023-09-03T08:19:01.532Z,18.50
2023-09-03T08:21:28.348Z,18.60
2023-09-03T08:26:22.541Z,18.30
2023-09-03T08:28:49.391Z,21.30
2023-09-03T08:31:16.377Z,21.10
2023-09-03T08:43:32.655Z,19.60
2023-09-03T08:46:08.668Z,22.00
2023-09-03T08:48:36.200Z,22.70
2023-09-03T08:51:03.961Z,22.50
2023-09-03T08:53:32.917Z,20.70
2023-09-03T08:58:27.646Z,21.80
2023-09-03T09:00:57.107Z,23.50
2023-09-03T09:03:29.122Z,22.20
2023-09-03T09:05:56.673Z,23.40
2023-09-03T09:08:24.922Z,22.50
2023-09-03T09:10:54.437Z,21.20
2023-09-03T09:13:25.543Z,22.70
2023-09-03T09:15:52.821Z,23.00
2023-09-03T09:20:48.810Z,23.00
2023-09-03T09:23:22.049Z,24.30
2023-09-03T09:28:16.530Z,23.50
2023-09-03T09:30:59.778Z,24.90
2023-09-03T09:33:28.125Z,23.00
2023-09-03T09:35:55.729Z,24.80
2023-09-03T09:38:35.667Z,23.90
2023-09-03T09:41:25.054Z,24.10
2023-09-03T09:43:52.619Z,22.90
2023-09-03T09:46:30.647Z,24.60
2023-09-03T09:49:01.863Z,23.40
2023-09-03T09:51:30.341Z,23.80
2023-09-03T09:54:02.298Z,26.40
2023-09-03T09:56:30.672Z,25.10
2023-09-03T09:59:00.787Z,26.30
2023-09-03T10:01:41.696Z,24.20
2023-09-03T10:06:37.572Z,26.90
2023-09-03T10:09:06.276Z,26.00
2023-09-03T10:11:33.191Z,27.30
2023-09-03T10:14:00.041Z,24.50
2023-09-03T10:16:27.696Z,24.40
2023-09-03T10:18:56.258Z,25.70
2023-09-03T10:21:42.295Z,25.70
2023-09-03T10:24:16.333Z,25.20
2023-09-03T10:26:47.108Z,24.40
2023-09-03T10:29:18.501Z,27.00
2023-09-03T10:31:46.196Z,27.70
2023-09-03T10:34:16.148Z,27.70
2023-09-03T10:37:06.118Z,26.50
2023-09-03T10:39:33.900Z,26.70
2023-09-03T10:42:19.371Z,27.20
2023-09-03T10:44:52.100Z,26.60
2023-09-03T10:47:19.709Z,27.60
2023-09-03T10:49:49.347Z,27.70
2023-09-03T10:52:29.473Z,27.90
2023-09-03T10:55:17.365Z,28.00
2023-09-03T10:57:49.336Z,28.20
2023-09-03T11:00:25.364Z,28.20
2023-09-03T11:03:16.275Z,27.30
2023-09-03T11:06:05.158Z,29.00
2023-09-03T11:08:35.636Z,28.40
2023-09-03T11:11:02.986Z,28.20
2023-09-03T11:13:37.741Z,28.30
2023-09-03T11:16:05.767Z,29.10
2023-09-03T11:18:33.844Z,28.60
2023-09-03T11:21:02.253Z,28.90
2023-09-03T11:23:33.930Z,29.20
2023-09-03T11:26:04.579Z,29.20
2023-09-03T11:28:37.172Z,29.80
2023-09-03T11:31:04.824Z,30.00
2023-09-03T11:33:32.025Z,30.10
2023-09-03T11:36:01.235Z,30.20
2023-09-03T11:38:28.549Z,30.40
2023-09-03T11:40:59.940Z,30.70
2023-09-03T11:43:32.463Z,30.60
2023-09-03T11:46:05.256Z,30.70
2023-09-03T11:48:33.449Z,30.90
2023-09-03T11:51:00.457Z,29.70
2023-09-03T11:53:39.594Z,30.60
2023-09-03T11:56:07.916Z,30.90
2023-09-03T11:58:35.100Z,30.80
2023-09-03T12:01:02.383Z,30.70
2023-09-03T12:03:29.430Z,30.60
2023-09-03T12:05:56.528Z,30.60
2023-09-03T12:08:23.495Z,30.50
2023-09-03T12:10:51.443Z,29.20
2023-09-03T12:13:31.462Z,29.50
2023-09-03T12:16:12.651Z,30.90
2023-09-03T12:18:40.260Z,30.00
2023-09-03T12:21:09.575Z,30.20
2023-09-03T12:23:38.279Z,30.10
2023-09-03T12:26:06.235Z,30.00
2023-09-03T12:28:38.471Z,29.90
2023-09-03T12:31:08.700Z,30.00
2023-09-03T12:33:38.524Z,30.00
2023-09-03T12:36:13.281Z,30.20
2023-09-03T12:38:55.373Z,30.00
2023-09-03T12:41:23.737Z,30.20
2023-09-03T12:43:50.938Z,30.60
2023-09-03T12:46:17.987Z,30.70
2023-09-03T12:48:45.727Z,30.60
2023-09-03T12:51:17.468Z,31.40
2023-09-03T12:53:46.116Z,29.20
2023-09-03T12:56:13.609Z,31.60
2023-09-03T12:58:41.044Z,31.60
2023-09-03T13:01:09.609Z,29.50
2023-09-03T13:03:36.982Z,30.50
2023-09-03T13:06:04.171Z,30.00
2023-09-03T13:08:33.308Z,31.90
2023-09-03T13:11:01.384Z,30.50
2023-09-03T13:13:29.490Z,31.10
2023-09-03T13:15:56.743Z,31.10
2023-09-03T13:18:23.818Z,31.10
2023-09-03T13:20:50.765Z,31.40
2023-09-03T13:23:18.016Z,30.50
2023-09-03T13:25:44.976Z,30.80
2023-09-03T13:28:13.293Z,33.60
2023-09-03T13:30:45.284Z,32.80
2023-09-03T13:33:21.013Z,34.70
2023-09-03T13:35:55.030Z,34.90
2023-09-03T13:38:22.342Z,33.60
2023-09-03T13:40:54.032Z,33.70
2023-09-03T13:43:24.364Z,34.00
2023-09-03T13:46:00.510Z,33.90
2023-09-03T13:48:28.261Z,34.40
2023-09-03T13:50:58.054Z,34.40
2023-09-03T13:53:25.380Z,34.10
2023-09-03T13:55:52.516Z,33.80
2023-09-03T13:58:19.883Z,33.50
2023-09-03T14:00:47.115Z,33.50
2023-09-03T14:03:14.200Z,33.60
2023-09-03T14:05:41.345Z,33.70
2023-09-03T14:08:08.299Z,33.70
2023-09-03T14:10:35.206Z,33.10
2023-09-03T14:13:02.313Z,32.80
2023-09-03T14:15:32.289Z,31.80
2023-09-03T14:17:59.209Z,32.80
2023-09-03T14:20:26.196Z,34.00
2023-09-03T14:22:54.529Z,33.10
2023-09-03T14:25:23.221Z,34.30
2023-09-03T14:27:50.584Z,36.50
2023-09-03T14:30:17.756Z,33.50
2023-09-03T14:32:44.627Z,33.70
2023-09-03T14:35:11.699Z,33.90
2023-09-03T14:37:38.685Z,34.00
2023-09-03T14:40:06.871Z,34.20
2023-09-03T14:42:33.820Z,34.50
2023-09-03T14:45:00.900Z,33.60
2023-09-03T14:47:27.973Z,34.90
2023-09-03T14:49:55.027Z,35.00
2023-09-03T14:52:21.987Z,35.10
2023-09-03T14:54:48.823Z,34.90
2023-09-03T14:57:15.732Z,34.80
2023-09-03T14:59:42.823Z,34.70
2023-09-03T15:02:09.827Z,34.60
2023-09-03T15:04:36.920Z,34.50
2023-09-03T15:07:04.191Z,34.40
2023-09-03T15:09:31.098Z,34.20
2023-09-03T15:11:58.002Z,33.40
2023-09-03T15:14:24.987Z,33.60
2023-09-03T15:16:51.950Z,33.40
2023-09-03T15:19:20.521Z,32.90
2023-09-03T15:21:48.550Z,32.50
2023-09-03T15:24:16.307Z,31.50
2023-09-03T15:26:45.643Z,32.00
2023-09-03T15:29:12.736Z,31.90
2023-09-03T15:31:39.789Z,31.80
2023-09-03T15:34:09.874Z,31.70
2023-09-03T15:36:36.843Z,31.50
2023-09-03T15:39:04.102Z,31.20
2023-09-03T15:41:31.174Z,31.00
2023-09-03T15:44:02.141Z,30.90
2023-09-03T15:46:29.260Z,30.80
2023-09-03T15:48:56.570Z,30.70
2023-09-03T15:51:23.520Z,30.50
2023-09-03T15:53:50.372Z,30.40
2023-09-03T15:56:17.271Z,30.30
2023-09-03T15:58:44.231Z,29.40
2023-09-03T16:01:13.221Z,30.30
2023-09-03T16:03:40.362Z,30.40
2023-09-03T16:06:07.938Z,30.50
2023-09-03T16:08:35.118Z,30.40
2023-09-03T16:11:11.158Z,30.20
2023-09-03T16:13:38.187Z,29.90
2023-09-03T16:16:09.018Z,29.70
2023-09-03T16:18:36.192Z,30.00
2023-09-03T16:21:03.128Z,29.50
2023-09-03T16:23:30.001Z,29.40
2023-09-03T16:25:56.913Z,29.20
2023-09-03T16:28:24.188Z,28.90
2023-09-03T16:30:58.041Z,28.70
2023-09-03T16:33:25.061Z,28.50
2023-09-03T16:35:52.159Z,28.40
2023-09-03T16:38:19.039Z,27.30
2023-09-03T16:40:45.979Z,28.20
2023-09-03T16:43:12.921Z,28.20
2023-09-03T16:45:42.922Z,28.20
2023-09-03T16:48:09.817Z,29.50
2023-09-03T16:50:36.786Z,28.10
2023-09-03T16:53:03.859Z,27.10
2023-09-03T16:55:31.894Z,27.90
2023-09-03T16:57:58.771Z,27.80
2023-09-03T17:00:25.981Z,27.70
2023-09-03T17:02:54.011Z,27.70
2023-09-03T17:05:22.639Z,28.80
2023-09-03T17:07:49.628Z,26.70
2023-09-03T17:10:17.923Z,27.50
2023-09-03T17:12:44.873Z,27.40
2023-09-03T17:15:12.107Z,26.10
2023-09-03T17:17:40.925Z,26.60
2023-09-03T17:20:09.677Z,26.80
2023-09-03T17:22:36.690Z,25.50
2023-09-03T17:25:03.886Z,25.60
2023-09-03T17:27:30.745Z,27.60
2023-09-03T17:29:57.649Z,27.70
2023-09-03T17:32:24.777Z,25.80
2023-09-03T17:34:52.480Z,25.70
2023-09-03T17:37:19.456Z,25.50
2023-09-03T17:39:46.346Z,25.70
2023-09-03T17:44:40.633Z,24.70
2023-09-03T17:47:07.559Z,26.10
2023-09-03T17:49:34.464Z,27.20
2023-09-03T17:52:01.410Z,25.70
2023-09-03T17:54:28.296Z,25.40
2023-09-03T17:59:22.448Z,26.50
2023-09-03T18:01:49.389Z,26.00
2023-09-03T18:04:16.422Z,24.70
2023-09-03T18:06:43.367Z,25.40
2023-09-03T18:11:38.421Z,23.40
2023-09-03T18:14:05.351Z,25.00
2023-09-03T18:19:00.682Z,24.80
2023-09-03T18:21:27.507Z,23.50
2023-09-03T18:23:54.919Z,22.80
2023-09-03T18:26:23.840Z,25.20
2023-09-03T18:28:50.846Z,22.60
2023-09-03T18:31:17.982Z,23.80
2023-09-03T18:33:44.994Z,23.70
2023-09-03T18:36:12.086Z,23.60
2023-09-03T18:38:39.098Z,23.40
2023-09-03T18:41:06.009Z,23.30
2023-09-03T18:43:33.121Z,23.20
2023-09-03T18:46:00.879Z,23.00
2023-09-03T18:48:27.846Z,22.80
2023-09-03T18:50:54.853Z,22.80
2023-09-03T18:53:23.255Z,22.70
2023-09-03T18:55:50.331Z,22.50
2023-09-03T18:58:17.268Z,22.50
2023-09-03T19:00:44.194Z,22.40
2023-09-03T19:03:11.122Z,22.30
2023-09-03T19:05:42.565Z,22.20
2023-09-03T19:08:09.522Z,22.20
2023-09-03T19:10:36.789Z,22.10
2023-09-03T19:13:07.141Z,21.90
2023-09-03T19:15:40.785Z,21.80
2023-09-03T19:18:09.473Z,21.80
2023-09-03T19:20:37.621Z,21.60
2023-09-03T19:23:06.535Z,21.60
2023-09-03T19:25:39.676Z,21.60
2023-09-03T19:28:07.004Z,21.50
2023-09-03T19:30:34.042Z,22.10
2023-09-03T19:33:00.970Z,21.40
2023-09-03T19:35:28.567Z,22.00
2023-09-03T19:45:20.981Z,19.70
2023-09-03T19:47:47.985Z,19.60
2023-09-03T19:52:43.216Z,20.50
2023-09-03T19:55:10.421Z,20.10
2023-09-03T20:02:38.031Z,21.40
2023-09-03T20:07:32.406Z,18.80
2023-09-03T20:12:26.491Z,18.70
2023-09-03T20:17:20.770Z,20.80
2023-09-03T20:27:12.646Z,20.10
2023-09-03T20:32:11.337Z,18.50
2023-09-03T20:37:11.285Z,19.20
2023-09-03T20:39:41.031Z,18.90
2023-09-03T20:44:35.776Z,18.90
2023-09-03T20:47:02.682Z,20.30
2023-09-03T20:49:29.622Z,18.10
2023-09-03T20:51:56.547Z,18.20
2023-09-03T20:54:23.491Z,18.10
2023-09-03T20:59:17.718Z,17.60
2023-09-03T21:01:44.589Z,18.90
2023-09-03T21:04:11.500Z,19.50
2023-09-03T21:06:38.426Z,19.80
2023-09-03T21:09:05.482Z,19.40
2023-09-03T21:11:36.524Z,19.70
2023-09-03T21:14:03.970Z,19.50
2023-09-03T21:16:31.854Z,17.50
2023-09-03T21:21:28.404Z,17.00
2023-09-03T21:26:24.677Z,18.10
2023-09-03T21:28:51.548Z,18.40
2023-09-03T21:31:19.463Z,16.80
2023-09-03T21:33:50.484Z,18.30
2023-09-03T21:36:21.930Z,18.10
2023-09-03T21:38:50.259Z,16.70
2023-09-03T21:41:17.467Z,16.60
2023-09-03T21:43:46.295Z,17.80
2023-09-03T21:53:47.183Z,16.60
2023-09-03T22:03:36.457Z,17.20
2023-09-03T22:18:25.602Z,17.90
2023-09-03T22:28:14.994Z,15.70
2023-09-03T22:38:04.214Z,17.30
2023-09-03T22:50:20.977Z,17.30
2023-09-03T22:57:42.721Z,15.30
2023-09-03T23:05:05.891Z,15.80
2023-09-03T23:07:32.985Z,17.70
2023-09-03T23:10:02.310Z,17.50
2023-09-03T23:14:56.834Z,16.20
2023-09-03T23:22:18.380Z,14.90
2023-09-03T23:32:11.380Z,17.40
2023-09-03T23:39:34.414Z,15.20
2023-09-03T23:42:01.537Z,14.60
2023-09-03T23:54:35.260Z,15.10
